createdAt,value
2023-06-28T00:00:34.298Z,26.38
2023-06-28T00:01:37.588Z,26.37
2023-06-28T00:02:40.641Z,26.35
2023-06-28T00:03:45.567Z,26.35
2023-06-28T00:04:48.969Z,26.33
2023-06-28T00:05:53.011Z,26.27
2023-06-28T00:06:55.968Z,26.27
2023-06-28T00:07:58.721Z,26.30
2023-06-28T00:09:01.672Z,26.30
2023-06-28T00:10:05.238Z,26.28
2023-06-28T00:11:09.192Z,26.27
2023-06-28T00:12:12.528Z,26.27
2023-06-28T00:13:16.001Z,26.26
2023-06-28T00:14:19.242Z,26.27
2023-06-28T00:15:22.408Z,26.27
2023-06-28T00:16:25.621Z,26.27
2023-06-28T00:17:28.960Z,26.27
2023-06-28T00:18:33.693Z,26.27
2023-06-28T00:19:38.372Z,26.27
2023-06-28T00:20:41.682Z,26.27
2023-06-28T00:21:45.490Z,26.29
2023-06-28T00:22:48.280Z,26.29
2023-06-28T00:23:51.170Z,26.30
2023-06-28T00:24:55.507Z,26.30
2023-06-28T00:25:58.255Z,26.32
2023-06-28T00:27:01.214Z,26.32
2023-06-28T00:28:04.743Z,26.32
2023-06-28T00:29:10.660Z,26.32
2023-06-28T00:30:15.060Z,26.30
2023-06-28T00:31:17.896Z,26.30
2023-06-28T00:32:22.923Z,26.29
2023-06-28T00:33:28.015Z,26.28
2023-06-28T00:34:30.889Z,26.29
2023-06-28T00:35:35.143Z,26.28
2023-06-28T00:36:38.547Z,26.28
2023-06-28T00:37:42.562Z,26.27
2023-06-28T00:38:45.405Z,26.26
2023-06-28T00:39:48.524Z,26.27
2023-06-28T00:40:53.568Z,26.27
2023-06-28T00:41:56.433Z,26.27
2023-06-28T00:42:59.864Z,26.14
2023-06-28T00:44:04.397Z,26.14
2023-06-28T00:45:09.624Z,26.22
2023-06-28T00:46:14.707Z,26.21
2023-06-28T00:47:18.696Z,26.21
2023-06-28T00:48:22.226Z,26.19
2023-06-28T00:49:26.789Z,26.16
2023-06-28T00:50:29.643Z,26.14
2023-06-28T00:51:36.982Z,26.13
2023-06-28T00:52:41.629Z,26.12
2023-06-28T00:53:44.378Z,26.12
2023-06-28T00:54:49.456Z,26.11
2023-06-28T00:55:54.084Z,26.10
2023-06-28T00:56:57.640Z,26.09
2023-06-28T00:58:01.581Z,26.09
2023-06-28T00:59:04.893Z,26.08
2023-06-28T01:00:11.425Z,26.09
2023-06-28T01:01:15.993Z,26.09
2023-06-28T01:02:20.976Z,26.10
2023-06-28T01:03:24.229Z,26.10
2023-06-28T01:04:27.814Z,26.11
2023-06-28T01:05:30.689Z,26.10
2023-06-28T01:06:35.933Z,26.10
2023-06-28T01:07:39.421Z,26.09
2023-06-28T01:08:43.069Z,26.03
2023-06-28T01:09:46.659Z,26.03
2023-06-28T01:10:49.289Z,26.08
2023-06-28T01:11:53.071Z,26.08
2023-06-28T01:12:56.166Z,26.07
2023-06-28T01:13:59.669Z,26.10
2023-06-28T01:15:05.634Z,26.11
2023-06-28T01:16:08.674Z,26.10
2023-06-28T01:17:12.124Z,26.09
2023-06-28T01:18:16.792Z,26.03
2023-06-28T01:19:20.562Z,26.03
2023-06-28T01:20:24.759Z,26.10
2023-06-28T01:21:30.854Z,26.10
2023-06-28T01:22:33.667Z,26.10
2023-06-28T01:23:38.224Z,26.10
2023-06-28T01:24:41.441Z,26.10
2023-06-28T01:25:44.617Z,26.11
2023-06-28T01:26:50.374Z,26.12
2023-06-28T01:27:53.007Z,26.13
2023-06-28T01:28:56.500Z,26.14
2023-06-28T01:30:02.003Z,26.15
2023-06-28T01:31:05.644Z,26.17
2023-06-28T01:32:10.904Z,26.17
2023-06-28T01:33:14.261Z,26.17
2023-06-28T01:34:17.979Z,26.17
2023-06-28T01:35:20.786Z,26.17
2023-06-28T01:36:25.468Z,26.18
2023-06-28T01:37:28.879Z,26.18
2023-06-28T01:38:32.965Z,26.18
2023-06-28T01:39:35.716Z,26.18
2023-06-28T01:40:39.126Z,26.19
2023-06-28T01:41:42.548Z,26.20
2023-06-28T01:42:45.316Z,26.21
2023-06-28T01:43:49.085Z,26.22
2023-06-28T01:44:53.614Z,26.22
2023-06-28T01:45:56.263Z,26.24
2023-06-28T01:46:59.347Z,26.24
2023-06-28T01:48:03.636Z,26.21
2023-06-28T01:49:08.045Z,26.19
2023-06-28T01:50:11.026Z,26.20
2023-06-28T01:51:14.890Z,26.20
2023-06-28T01:52:17.957Z,26.20
2023-06-28T01:53:21.280Z,26.20
2023-06-28T01:54:24.138Z,26.19
2023-06-28T01:55:27.521Z,26.18
2023-06-28T01:56:30.728Z,26.18
2023-06-28T01:57:33.569Z,26.18
2023-06-28T01:58:36.429Z,26.19
2023-06-28T01:59:39.199Z,26.20
2023-06-28T02:00:43.352Z,26.20
2023-06-28T02:01:47.629Z,26.21
2023-06-28T02:02:51.250Z,26.20
2023-06-28T02:03:54.715Z,26.19
2023-06-28T02:04:58.871Z,26.18
2023-06-28T02:06:01.985Z,26.17
2023-06-28T02:07:06.175Z,26.17
2023-06-28T02:08:09.066Z,26.15
2023-06-28T02:09:13.101Z,26.13
2023-06-28T02:10:17.668Z,26.13
2023-06-28T02:11:20.575Z,26.10
2023-06-28T02:12:23.583Z,26.09
2023-06-28T02:13:26.593Z,26.09
2023-06-28T02:14:30.008Z,26.06
2023-06-28T02:15:33.898Z,26.06
2023-06-28T02:16:38.018Z,26.04
2023-06-28T02:17:41.074Z,26.03
2023-06-28T02:18:45.727Z,26.02
2023-06-28T02:19:48.725Z,26.01
2023-06-28T02:20:52.350Z,26.00
2023-06-28T02:21:56.759Z,26.00
2023-06-28T02:22:59.318Z,25.98
2023-06-28T02:24:04.558Z,25.98
2023-06-28T02:25:08.606Z,25.98
2023-06-28T02:26:12.411Z,25.98
2023-06-28T02:27:15.570Z,25.88
2023-06-28T02:28:20.213Z,25.69
2023-06-28T02:29:23.341Z,25.47
2023-06-28T02:30:26.032Z,25.28
2023-06-28T02:31:30.632Z,25.09
2023-06-28T02:32:33.451Z,24.88
2023-06-28T02:33:36.318Z,24.68
2023-06-28T02:34:39.259Z,24.51
2023-06-28T02:35:43.517Z,24.38
2023-06-28T02:36:46.790Z,24.24
2023-06-28T02:37:49.927Z,24.17
2023-06-28T02:38:53.865Z,24.08
2023-06-28T02:39:58.175Z,23.98
2023-06-28T02:41:02.178Z,23.89
2023-06-28T02:42:06.268Z,23.80
2023-06-28T02:43:09.927Z,23.71
2023-06-28T02:44:12.709Z,23.64
2023-06-28T02:45:17.503Z,23.58
2023-06-28T02:46:20.605Z,23.53
2023-06-28T02:47:23.895Z,23.46
2023-06-28T02:48:26.944Z,23.37
2023-06-28T02:49:30.673Z,23.32
2023-06-28T02:50:34.338Z,23.26
2023-06-28T02:51:41.863Z,23.20
2023-06-28T02:52:46.720Z,23.12
2023-06-28T02:53:50.633Z,23.06
2023-06-28T02:54:54.081Z,22.98
2023-06-28T02:55:58.480Z,22.92
2023-06-28T02:57:05.545Z,22.87
2023-06-28T02:58:28.474Z,22.81
2023-06-28T02:59:33.094Z,22.75
2023-06-28T03:00:37.942Z,22.68
2023-06-28T03:01:41.281Z,22.63
2023-06-28T03:02:44.218Z,22.56
2023-06-28T03:03:48.643Z,22.50
2023-06-28T03:04:51.905Z,22.48
2023-06-28T03:05:54.786Z,22.45
2023-06-28T03:06:58.043Z,22.43
2023-06-28T03:08:00.728Z,22.41
2023-06-28T03:09:04.908Z,22.39
2023-06-28T03:10:09.166Z,22.36
2023-06-28T03:11:12.369Z,22.33
2023-06-28T03:12:15.451Z,22.32
2023-06-28T03:13:18.773Z,22.29
2023-06-28T03:14:21.770Z,22.26
2023-06-28T03:15:24.522Z,22.26
2023-06-28T03:16:28.694Z,22.25
2023-06-28T03:17:31.774Z,22.22
2023-06-28T03:18:36.099Z,22.22
2023-06-28T03:19:39.356Z,22.20
2023-06-28T03:20:44.818Z,22.19
2023-06-28T03:21:48.784Z,22.23
2023-06-28T03:22:52.315Z,22.35
2023-06-28T03:23:55.857Z,22.49
2023-06-28T03:24:59.889Z,22.62
2023-06-28T03:26:04.418Z,22.77
2023-06-28T03:27:08.962Z,22.90
2023-06-28T03:28:13.108Z,23.03
2023-06-28T03:29:16.476Z,23.14
2023-06-28T03:30:21.112Z,23.25
2023-06-28T03:31:24.840Z,23.37
2023-06-28T03:32:29.497Z,23.46
2023-06-28T03:33:32.653Z,23.56
2023-06-28T03:34:35.417Z,23.65
2023-06-28T03:35:38.360Z,23.74
2023-06-28T03:36:54.506Z,23.81
2023-06-28T03:37:53.167Z,23.89
2023-06-28T03:38:57.062Z,23.98
2023-06-28T03:40:01.009Z,24.05
2023-06-28T03:41:04.358Z,24.11
2023-06-28T03:42:07.495Z,24.15
2023-06-28T03:43:12.314Z,24.21
2023-06-28T03:44:15.163Z,24.28
2023-06-28T03:45:18.730Z,24.34
2023-06-28T03:46:22.153Z,24.41
2023-06-28T03:47:25.818Z,24.45
2023-06-28T03:48:29.960Z,24.50
2023-06-28T03:49:32.819Z,24.54
2023-06-28T03:50:36.937Z,24.60
2023-06-28T03:51:40.317Z,24.66
2023-06-28T03:52:43.614Z,24.69
2023-06-28T03:53:49.925Z,24.75
2023-06-28T03:55:06.796Z,24.77
2023-06-28T03:56:10.353Z,24.82
2023-06-28T03:57:13.310Z,24.85
2023-06-28T03:58:16.015Z,24.89
2023-06-28T03:59:19.193Z,24.91
2023-06-28T04:00:24.191Z,24.97
2023-06-28T04:01:28.340Z,25.00
2023-06-28T04:02:31.673Z,25.05
2023-06-28T04:03:34.839Z,25.09
2023-06-28T04:04:37.882Z,25.13
2023-06-28T04:05:40.515Z,25.15
2023-06-28T04:06:43.382Z,25.19
2023-06-28T04:07:49.112Z,25.21
2023-06-28T04:08:51.958Z,25.25
2023-06-28T04:09:54.634Z,25.27
2023-06-28T04:10:57.521Z,25.30
2023-06-28T04:12:00.943Z,25.32
2023-06-28T04:13:04.768Z,25.34
2023-06-28T04:14:07.515Z,25.37
2023-06-28T04:15:12.314Z,25.40
2023-06-28T04:16:17.024Z,25.41
2023-06-28T04:17:20.760Z,25.42
2023-06-28T04:18:23.951Z,25.42
2023-06-28T04:19:26.689Z,25.43
2023-06-28T04:20:29.934Z,25.44
2023-06-28T04:21:33.455Z,25.45
2023-06-28T04:22:36.421Z,25.47
2023-06-28T04:23:39.181Z,25.48
2023-06-28T04:24:44.427Z,25.50
2023-06-28T04:25:47.607Z,25.51
2023-06-28T04:26:50.862Z,25.51
2023-06-28T04:27:53.504Z,25.52
2023-06-28T04:28:57.103Z,25.54
2023-06-28T04:30:00.085Z,25.56
2023-06-28T04:31:02.935Z,25.57
2023-06-28T04:33:23.270Z,25.71
2023-06-28T04:34:26.215Z,25.62
2023-06-28T04:35:31.934Z,25.62
2023-06-28T04:36:34.673Z,25.61
2023-06-28T04:37:40.319Z,25.61
2023-06-28T04:38:43.170Z,25.63
2023-06-28T04:39:47.116Z,25.65
2023-06-28T04:40:51.270Z,25.66
2023-06-28T04:41:55.194Z,25.67
2023-06-28T04:42:58.141Z,25.69
2023-06-28T04:44:01.151Z,25.71
2023-06-28T04:45:07.894Z,25.71
2023-06-28T04:46:12.547Z,25.72
2023-06-28T04:47:18.575Z,25.66
2023-06-28T04:48:21.859Z,25.66
2023-06-28T04:49:24.608Z,25.72
2023-06-28T04:50:28.628Z,25.75
2023-06-28T04:51:31.382Z,25.73
2023-06-28T04:52:34.246Z,25.73
2023-06-28T04:53:38.468Z,25.73
2023-06-28T04:54:44.230Z,25.73
2023-06-28T04:55:48.693Z,25.75
2023-06-28T04:56:51.556Z,25.75
2023-06-28T04:57:55.797Z,25.76
2023-06-28T04:59:01.344Z,25.77
2023-06-28T05:00:08.907Z,25.78
2023-06-28T05:01:13.795Z,25.79
2023-06-28T05:02:18.905Z,25.78
2023-06-28T05:03:23.808Z,25.79
2023-06-28T05:04:27.589Z,25.78
2023-06-28T05:05:30.668Z,25.78
2023-06-28T05:06:35.533Z,25.79
2023-06-28T05:07:39.059Z,25.79
2023-06-28T05:08:42.429Z,25.80
2023-06-28T05:09:45.480Z,25.79
2023-06-28T05:10:48.929Z,25.81
2023-06-28T05:11:53.317Z,25.81
2023-06-28T05:12:56.662Z,25.81
2023-06-28T05:14:02.817Z,25.81
2023-06-28T05:15:05.507Z,25.81
2023-06-28T05:16:08.983Z,25.81
2023-06-28T05:17:12.548Z,25.81
2023-06-28T05:18:15.985Z,25.81
2023-06-28T05:19:19.329Z,25.80
2023-06-28T05:20:23.407Z,25.81
2023-06-28T05:21:26.052Z,25.81
2023-06-28T05:22:30.662Z,25.84
2023-06-28T05:24:46.315Z,25.98
2023-06-28T05:25:49.183Z,25.88
2023-06-28T05:26:52.468Z,25.89
2023-06-28T05:27:55.202Z,25.92
2023-06-28T05:28:59.201Z,25.94
2023-06-28T05:30:03.452Z,25.94
2023-06-28T05:31:06.902Z,25.96
2023-06-28T05:32:09.842Z,25.96
2023-06-28T05:33:12.719Z,25.96
2023-06-28T05:34:15.657Z,25.97
2023-06-28T05:35:18.330Z,25.98
2023-06-28T05:36:22.987Z,25.98
2023-06-28T05:37:26.143Z,25.98
2023-06-28T05:38:28.826Z,25.97
2023-06-28T05:39:31.785Z,25.96
2023-06-28T05:40:34.538Z,25.92
2023-06-28T05:41:37.386Z,25.87
2023-06-28T05:42:40.128Z,25.86
2023-06-28T05:43:45.425Z,25.85
2023-06-28T05:44:48.251Z,25.85
2023-06-28T05:45:51.012Z,25.85
2023-06-28T05:46:53.986Z,25.85
2023-06-28T05:47:58.560Z,25.85
2023-06-28T05:49:03.485Z,25.86
2023-06-28T05:50:09.580Z,25.86
2023-06-28T05:51:14.838Z,25.86
2023-06-28T05:52:18.616Z,25.85
2023-06-28T05:53:22.001Z,25.87
2023-06-28T05:54:25.150Z,25.86
2023-06-28T05:55:28.541Z,25.86
2023-06-28T05:56:32.962Z,25.86
2023-06-28T05:57:36.171Z,25.87
2023-06-28T05:58:38.916Z,25.86
2023-06-28T05:59:43.120Z,25.86
2023-06-28T06:00:45.869Z,25.86
2023-06-28T06:01:49.868Z,25.86
2023-06-28T06:02:54.231Z,25.86
2023-06-28T06:03:57.227Z,25.86
2023-06-28T06:05:01.967Z,25.86
2023-06-28T06:06:05.387Z,25.86
2023-06-28T06:07:14.784Z,25.86
2023-06-28T06:08:18.376Z,25.85
2023-06-28T06:09:22.625Z,25.77
2023-06-28T06:10:26.713Z,25.77
2023-06-28T06:11:30.395Z,25.80
2023-06-28T06:12:33.320Z,25.77
2023-06-28T06:13:37.893Z,25.76
2023-06-28T06:14:41.164Z,25.75
2023-06-28T06:15:43.811Z,25.73
2023-06-28T06:16:46.926Z,25.75
2023-06-28T06:17:50.826Z,25.73
2023-06-28T06:18:55.282Z,25.70
2023-06-28T06:19:59.923Z,25.66
2023-06-28T06:21:03.235Z,25.65
2023-06-28T06:22:07.915Z,25.66
2023-06-28T06:23:10.648Z,25.66
2023-06-28T06:24:14.401Z,25.66
2023-06-28T06:25:17.452Z,25.67
2023-06-28T06:26:20.401Z,25.68
2023-06-28T06:27:23.246Z,25.69
2023-06-28T06:28:26.175Z,25.70
2023-06-28T06:29:30.040Z,25.71
2023-06-28T06:30:32.997Z,25.71
2023-06-28T06:31:35.926Z,25.71
2023-06-28T06:32:39.836Z,25.71
2023-06-28T06:33:42.870Z,25.71
2023-06-28T06:34:45.938Z,25.71
2023-06-28T06:35:50.333Z,25.70
2023-06-28T06:36:55.006Z,25.69
2023-06-28T06:37:58.736Z,25.69
2023-06-28T06:39:01.448Z,25.69
2023-06-28T06:40:09.005Z,25.66
2023-06-28T06:41:14.026Z,25.62
2023-06-28T06:42:18.251Z,25.61
2023-06-28T06:43:21.438Z,25.59
2023-06-28T06:44:24.786Z,25.55
2023-06-28T06:45:28.264Z,25.50
2023-06-28T06:46:31.472Z,25.50
2023-06-28T06:48:51.644Z,25.63
2023-06-28T06:49:55.245Z,25.54
2023-06-28T06:50:58.899Z,25.52
2023-06-28T06:52:01.995Z,25.53
2023-06-28T06:53:04.829Z,25.53
2023-06-28T06:54:09.259Z,25.54
2023-06-28T06:55:13.111Z,25.56
2023-06-28T06:56:23.802Z,25.57
2023-06-28T06:57:27.648Z,25.60
2023-06-28T06:58:30.384Z,25.63
2023-06-28T06:59:33.781Z,25.63
2023-06-28T07:00:37.159Z,25.63
2023-06-28T07:01:40.640Z,25.64
2023-06-28T07:02:44.103Z,25.65
2023-06-28T07:03:48.516Z,25.66
2023-06-28T07:04:51.353Z,25.67
2023-06-28T07:05:55.088Z,25.66
2023-06-28T07:06:58.008Z,25.66
2023-06-28T07:08:00.710Z,25.66
2023-06-28T07:09:04.138Z,25.67
2023-06-28T07:10:11.040Z,25.68
2023-06-28T07:11:14.091Z,25.69
2023-06-28T07:12:16.834Z,25.71
2023-06-28T07:13:19.594Z,25.73
2023-06-28T07:14:22.261Z,25.72
2023-06-28T07:15:24.994Z,25.72
2023-06-28T07:16:27.704Z,25.71
2023-06-28T07:17:32.849Z,25.70
2023-06-28T07:18:37.114Z,25.70
2023-06-28T07:19:40.195Z,25.71
2023-06-28T07:20:43.838Z,25.69
2023-06-28T07:21:46.861Z,25.71
2023-06-28T07:22:50.442Z,25.72
2023-06-28T07:23:54.839Z,25.71
2023-06-28T07:24:57.553Z,25.72
2023-06-28T07:26:01.636Z,25.72
2023-06-28T07:27:07.579Z,25.70
2023-06-28T07:28:10.648Z,25.70
2023-06-28T07:29:14.048Z,25.70
2023-06-28T07:30:17.563Z,25.72
2023-06-28T07:31:21.190Z,25.71
2023-06-28T07:32:26.465Z,25.71
2023-06-28T07:33:29.601Z,25.69
2023-06-28T07:34:32.261Z,25.66
2023-06-28T07:35:35.863Z,25.65
2023-06-28T07:36:40.682Z,25.62
2023-06-28T07:37:43.874Z,25.62
2023-06-28T07:38:49.023Z,25.69
2023-06-28T07:39:52.419Z,25.69
2023-06-28T07:40:55.255Z,25.68
2023-06-28T07:41:58.882Z,25.67
2023-06-28T07:43:03.395Z,25.65
2023-06-28T07:44:07.390Z,25.65
2023-06-28T07:45:12.608Z,25.67
2023-06-28T07:46:16.696Z,25.69
2023-06-28T07:47:20.826Z,25.72
2023-06-28T07:48:24.882Z,25.72
2023-06-28T07:49:27.985Z,25.73
2023-06-28T07:50:32.944Z,25.74
2023-06-28T07:51:36.793Z,25.74
2023-06-28T07:52:39.761Z,25.73
2023-06-28T07:53:43.798Z,25.71
2023-06-28T07:54:46.661Z,25.70
2023-06-28T07:55:50.054Z,25.68
2023-06-28T07:56:52.960Z,25.58
2023-06-28T07:57:56.422Z,25.65
2023-06-28T07:59:02.645Z,25.65
2023-06-28T08:00:07.214Z,25.65
2023-06-28T08:01:11.088Z,25.67
2023-06-28T08:02:14.356Z,25.69
2023-06-28T08:03:17.252Z,25.69
2023-06-28T08:04:20.877Z,25.69
2023-06-28T08:05:23.793Z,25.70
2023-06-28T08:06:26.761Z,25.71
2023-06-28T08:07:29.583Z,25.72
2023-06-28T08:08:32.412Z,25.72
2023-06-28T08:09:35.028Z,25.75
2023-06-28T08:10:39.081Z,25.76
2023-06-28T08:11:42.628Z,25.78
2023-06-28T08:12:45.391Z,25.79
2023-06-28T08:13:48.465Z,25.82
2023-06-28T08:14:51.512Z,25.83
2023-06-28T08:15:55.720Z,25.84
2023-06-28T08:17:00.039Z,25.84
2023-06-28T08:18:03.628Z,25.81
2023-06-28T08:19:07.613Z,25.81
2023-06-28T08:20:12.144Z,25.83
2023-06-28T08:21:15.947Z,25.82
2023-06-28T08:22:19.046Z,25.83
2023-06-28T08:23:22.535Z,25.85
2023-06-28T08:24:25.438Z,25.86
2023-06-28T08:25:28.899Z,25.87
2023-06-28T08:26:31.746Z,25.88
2023-06-28T08:27:48.886Z,25.89
2023-06-28T08:28:59.865Z,25.89
2023-06-28T08:29:57.425Z,25.92
2023-06-28T08:31:00.324Z,25.93
2023-06-28T08:32:06.805Z,25.93
2023-06-28T08:33:09.762Z,25.93
2023-06-28T08:34:13.561Z,25.93
2023-06-28T08:35:17.085Z,25.91
2023-06-28T08:36:20.335Z,25.88
2023-06-28T08:37:24.005Z,25.88
2023-06-28T08:38:27.091Z,25.85
2023-06-28T08:39:31.317Z,25.85
2023-06-28T08:40:34.493Z,25.84
2023-06-28T08:41:37.405Z,25.83
2023-06-28T08:42:41.745Z,25.83
2023-06-28T08:43:46.007Z,25.81
2023-06-28T08:44:51.431Z,25.80
2023-06-28T08:45:54.257Z,25.81
2023-06-28T08:46:57.469Z,25.82
2023-06-28T08:48:09.633Z,25.81
2023-06-28T08:49:07.211Z,25.79
2023-06-28T08:50:24.280Z,25.80
2023-06-28T08:51:29.265Z,25.82
2023-06-28T08:52:33.073Z,25.83
2023-06-28T08:53:36.508Z,25.84
2023-06-28T08:54:39.119Z,25.87
2023-06-28T08:55:44.043Z,25.88
2023-06-28T08:57:04.427Z,25.89
2023-06-28T08:57:53.321Z,25.88
2023-06-28T08:58:57.132Z,25.89
2023-06-28T09:00:00.831Z,25.85
2023-06-28T09:01:04.536Z,25.85
2023-06-28T09:02:12.033Z,25.89
2023-06-28T09:03:16.447Z,25.91
2023-06-28T09:04:20.008Z,25.90
2023-06-28T09:05:23.348Z,25.87
2023-06-28T09:06:28.163Z,25.88
2023-06-28T09:07:32.567Z,25.88
2023-06-28T09:08:35.881Z,25.89
2023-06-28T09:10:51.351Z,26.03
2023-06-28T09:11:55.411Z,25.94
2023-06-28T09:12:58.027Z,25.94
2023-06-28T09:14:01.978Z,25.92
2023-06-28T09:15:05.473Z,25.92
2023-06-28T09:16:11.152Z,25.96
2023-06-28T09:17:13.869Z,25.98
2023-06-28T09:18:16.323Z,25.97
2023-06-28T09:19:20.365Z,25.94
2023-06-28T09:20:25.137Z,25.94
2023-06-28T09:21:29.118Z,25.94
2023-06-28T09:22:31.732Z,25.93
2023-06-28T09:23:35.879Z,25.90
2023-06-28T09:24:39.102Z,25.91
2023-06-28T09:25:42.965Z,25.93
2023-06-28T09:26:46.913Z,25.93
2023-06-28T09:27:50.278Z,25.94
2023-06-28T09:29:12.994Z,25.94
2023-06-28T09:30:22.960Z,25.96
2023-06-28T09:31:25.718Z,25.96
2023-06-28T09:32:41.489Z,25.98
2023-06-28T09:33:44.865Z,25.98
2023-06-28T09:34:48.309Z,26.01
2023-06-28T09:35:58.933Z,26.02
2023-06-28T09:37:02.300Z,26.03
2023-06-28T09:38:08.451Z,26.04
2023-06-28T09:39:11.265Z,26.04
2023-06-28T09:40:17.772Z,26.04
2023-06-28T09:41:22.019Z,26.04
2023-06-28T09:42:24.884Z,26.05
2023-06-28T09:43:32.867Z,26.04
2023-06-28T09:44:37.449Z,26.07
2023-06-28T09:45:40.439Z,26.06
2023-06-28T09:48:00.752Z,26.17
2023-06-28T09:49:03.634Z,26.08
2023-06-28T09:50:07.535Z,26.09
2023-06-28T09:51:12.518Z,26.09
2023-06-28T09:52:16.113Z,26.09
2023-06-28T09:53:20.622Z,26.10
2023-06-28T09:54:35.091Z,26.11
2023-06-28T09:55:39.674Z,26.13
2023-06-28T09:56:43.367Z,26.15
2023-06-28T09:57:46.145Z,26.15
2023-06-28T09:58:49.309Z,26.13
2023-06-28T09:59:53.438Z,26.11
2023-06-28T10:00:56.507Z,26.10
2023-06-28T10:01:59.741Z,26.11
2023-06-28T10:03:05.085Z,26.11
2023-06-28T10:04:11.847Z,26.13
2023-06-28T10:05:14.777Z,26.12
2023-06-28T10:06:18.736Z,26.12
2023-06-28T10:07:21.477Z,26.11
2023-06-28T10:08:24.204Z,26.10
2023-06-28T10:09:30.144Z,26.08
2023-06-28T10:10:34.880Z,26.06
2023-06-28T10:11:37.976Z,26.03
2023-06-28T10:12:41.032Z,26.02
2023-06-28T10:13:45.731Z,26.01
2023-06-28T10:14:59.678Z,26.01
2023-06-28T10:16:15.356Z,26.02
2023-06-28T10:17:19.033Z,26.00
2023-06-28T10:18:22.672Z,25.98
2023-06-28T10:19:25.623Z,25.90
2023-06-28T10:20:28.577Z,25.85
2023-06-28T10:21:31.919Z,25.83
2023-06-28T10:22:36.788Z,25.82
2023-06-28T10:23:40.497Z,25.83
2023-06-28T10:24:44.266Z,25.86
2023-06-28T10:25:47.681Z,25.89
2023-06-28T10:26:51.308Z,25.91
2023-06-28T10:27:54.736Z,25.92
2023-06-28T10:28:59.113Z,25.95
2023-06-28T10:31:13.702Z,26.11
2023-06-28T10:32:17.233Z,26.02
2023-06-28T10:34:35.682Z,26.16
2023-06-28T10:35:38.969Z,26.07
2023-06-28T10:36:45.015Z,26.09
2023-06-28T10:37:49.863Z,26.12
2023-06-28T10:38:52.526Z,26.12
2023-06-28T10:39:55.458Z,26.12
2023-06-28T10:41:00.352Z,26.10
2023-06-28T10:42:05.578Z,26.10
2023-06-28T10:43:26.923Z,26.09
2023-06-28T10:44:30.320Z,26.08
2023-06-28T10:46:47.548Z,26.20
2023-06-28T10:47:55.945Z,26.11
2023-06-28T10:49:02.477Z,26.11
2023-06-28T10:50:07.742Z,26.12
2023-06-28T10:51:12.646Z,26.12
2023-06-28T10:52:20.373Z,26.13
2023-06-28T10:53:25.829Z,26.13
2023-06-28T10:54:28.817Z,26.13
2023-06-28T11:01:06.404Z,26.03
2023-06-28T11:02:10.404Z,26.04
2023-06-28T11:03:15.676Z,26.02
2023-06-28T11:05:42.545Z,26.08
2023-06-28T11:06:46.900Z,25.98
2023-06-28T11:07:51.766Z,25.99
2023-06-28T11:08:55.318Z,25.99
2023-06-28T11:10:12.369Z,25.99
2023-06-28T11:11:35.092Z,25.98
2023-06-28T11:12:41.605Z,25.98
2023-06-28T11:13:46.157Z,25.99
2023-06-28T11:14:50.241Z,26.00
2023-06-28T11:15:53.823Z,26.00
2023-06-28T11:17:04.105Z,25.99
2023-06-28T11:18:11.710Z,26.00
2023-06-28T11:19:16.208Z,26.01
2023-06-28T11:20:20.543Z,26.04
2023-06-28T11:21:24.549Z,26.06
2023-06-28T11:23:46.785Z,26.17
2023-06-28T11:24:49.896Z,26.08
2023-06-28T11:27:18.928Z,26.21
2023-06-28T11:28:27.040Z,26.11
2023-06-28T11:29:30.516Z,26.10
2023-06-28T11:32:03.914Z,26.15
2023-06-28T11:33:07.288Z,26.03
2023-06-28T11:34:10.808Z,25.99
2023-06-28T11:35:13.775Z,25.96
2023-06-28T11:36:16.885Z,25.95
2023-06-28T11:38:33.232Z,26.05
2023-06-28T11:40:48.856Z,26.03
2023-06-28T11:41:51.993Z,25.92
2023-06-28T11:44:08.115Z,26.01
2023-06-28T11:45:13.213Z,25.91
2023-06-28T11:46:20.484Z,25.91
2023-06-28T11:47:28.103Z,25.92
2023-06-28T11:48:31.349Z,25.94
2023-06-28T11:49:35.381Z,25.96
2023-06-28T11:50:38.757Z,25.98
2023-06-28T11:51:42.300Z,26.00
2023-06-28T11:52:49.882Z,26.01
2023-06-28T11:55:08.379Z,26.15
2023-06-28T11:56:12.822Z,26.05
2023-06-28T11:57:17.083Z,26.08
2023-06-28T11:58:28.308Z,26.09
2023-06-28T11:59:32.006Z,26.10
2023-06-28T12:00:41.276Z,26.12
2023-06-28T12:01:45.599Z,26.14
2023-06-28T12:02:51.938Z,26.15
2023-06-28T12:03:55.353Z,26.15
2023-06-28T12:04:58.990Z,26.16
2023-06-28T12:06:03.895Z,26.17
2023-06-28T12:07:08.326Z,26.17
2023-06-28T12:08:12.237Z,26.19
2023-06-28T12:09:25.239Z,26.18
2023-06-28T12:10:36.784Z,26.18
2023-06-28T12:14:43.157Z,26.30
2023-06-28T12:15:46.266Z,26.18
2023-06-28T12:18:04.982Z,26.30
2023-06-28T12:19:08.330Z,26.20
2023-06-28T12:20:15.261Z,26.22
2023-06-28T12:21:19.702Z,26.22
2023-06-28T12:22:22.883Z,26.22
2023-06-28T12:23:25.614Z,26.24
2023-06-28T12:24:28.505Z,26.26
2023-06-28T12:25:31.756Z,26.26
2023-06-28T12:26:34.594Z,26.27
2023-06-28T12:27:38.959Z,26.27
2023-06-28T12:28:41.795Z,26.28
2023-06-28T12:29:45.481Z,26.27
2023-06-28T12:30:48.731Z,26.28
2023-06-28T12:31:53.413Z,26.22
2023-06-28T12:32:57.341Z,26.22
2023-06-28T12:35:23.763Z,26.39
2023-06-28T12:36:31.756Z,26.29
2023-06-28T12:38:50.954Z,26.41
2023-06-28T12:39:54.633Z,26.30
2023-06-28T12:40:58.626Z,26.29
2023-06-28T12:43:24.686Z,26.43
2023-06-28T12:44:28.875Z,26.34
2023-06-28T12:45:32.325Z,26.34
2023-06-28T12:46:35.781Z,26.35
2023-06-28T12:47:38.976Z,26.36
2023-06-28T12:48:41.849Z,26.37
2023-06-28T12:49:45.258Z,26.35
2023-06-28T12:50:50.158Z,26.34
2023-06-28T12:51:54.325Z,26.34
2023-06-28T12:52:57.249Z,26.33
2023-06-28T12:54:00.256Z,26.33
2023-06-28T12:55:03.204Z,26.34
2023-06-28T12:56:06.237Z,26.35
2023-06-28T12:57:09.473Z,26.35
2023-06-28T12:58:12.987Z,26.33
2023-06-28T12:59:16.720Z,26.34
2023-06-28T13:00:20.987Z,26.34
2023-06-28T13:01:24.594Z,26.36
2023-06-28T13:02:27.412Z,26.38
2023-06-28T13:03:31.974Z,26.38
2023-06-28T13:04:39.877Z,26.38
2023-06-28T13:05:43.276Z,26.39
2023-06-28T13:06:47.251Z,26.40
2023-06-28T13:07:49.948Z,26.41
2023-06-28T13:08:53.132Z,26.43
2023-06-28T13:09:55.849Z,26.43
2023-06-28T13:10:59.764Z,26.44
2023-06-28T13:12:03.216Z,26.44
2023-06-28T13:13:06.440Z,26.41
2023-06-28T13:14:09.497Z,26.41
2023-06-28T13:15:14.092Z,26.41
2023-06-28T13:17:31.199Z,26.54
2023-06-28T13:18:34.984Z,26.43
2023-06-28T13:19:37.462Z,26.39
2023-06-28T13:20:41.068Z,26.35
2023-06-28T13:21:50.385Z,26.35
2023-06-28T13:22:53.321Z,26.40
2023-06-28T13:23:56.376Z,26.40
2023-06-28T13:24:59.450Z,26.39
2023-06-28T13:26:02.513Z,26.39
2023-06-28T13:27:06.946Z,26.38
2023-06-28T13:28:09.735Z,26.37
2023-06-28T13:29:12.911Z,26.37
2023-06-28T13:30:16.334Z,26.36
2023-06-28T13:31:19.221Z,26.35
2023-06-28T13:32:21.945Z,26.34
2023-06-28T13:33:24.982Z,26.33
2023-06-28T13:34:28.599Z,26.32
2023-06-28T13:35:31.262Z,26.31
2023-06-28T13:36:36.240Z,26.32
2023-06-28T13:37:40.188Z,26.30
2023-06-28T13:38:44.403Z,26.25
2023-06-28T13:39:47.349Z,26.22
2023-06-28T13:40:50.941Z,26.21
2023-06-28T13:41:53.896Z,26.20
2023-06-28T13:42:57.070Z,26.20
2023-06-28T13:43:59.677Z,26.20
2023-06-28T13:45:03.600Z,26.15
2023-06-28T13:46:07.258Z,26.12
2023-06-28T13:47:10.154Z,26.09
2023-06-28T13:48:12.904Z,26.09
2023-06-28T13:49:16.591Z,26.09
2023-06-28T13:50:19.874Z,26.10
2023-06-28T13:51:23.496Z,26.08
2023-06-28T13:52:26.446Z,26.08
2023-06-28T13:53:30.362Z,26.07
2023-06-28T13:54:35.978Z,26.06
2023-06-28T13:55:39.683Z,26.03
2023-06-28T13:56:43.191Z,26.01
2023-06-28T13:57:46.765Z,26.00
2023-06-28T13:58:49.413Z,25.98
2023-06-28T13:59:52.151Z,25.98
2023-06-28T14:00:56.997Z,26.00
2023-06-28T14:01:59.958Z,26.02
2023-06-28T14:03:03.408Z,26.04
2023-06-28T14:04:06.481Z,26.05
2023-06-28T14:05:09.947Z,26.05
2023-06-28T14:06:14.186Z,26.06
2023-06-28T14:07:17.070Z,26.05
2023-06-28T14:08:20.371Z,26.05
2023-06-28T14:09:23.534Z,26.06
2023-06-28T14:10:26.381Z,26.08
2023-06-28T14:11:30.217Z,26.07
2023-06-28T14:12:35.892Z,26.07
2023-06-28T14:13:39.637Z,26.09
2023-06-28T14:14:46.401Z,26.09
2023-06-28T14:15:49.245Z,26.11
2023-06-28T14:16:52.556Z,26.11
2023-06-28T14:17:56.126Z,26.12
2023-06-28T14:18:59.049Z,26.13
2023-06-28T14:20:02.075Z,26.13
2023-06-28T14:21:05.018Z,26.14